Time;durP1;ratioP1;P1;durP2;ratioP2;P2;SDS_P1;SDS_P2;PMS_P1;PMS_P2;Temp;Humidity;BMP_temperature;BMP_pressure;BME280_temperature;BME280_humidity;BME280_pressure;Samples;Min_cycle;Max_cycle;Signal;HPM_P1;HPM_P2
2023/01/11 00:01:34;;;;;;;7.22;1.67;;;6.60;99.90;;;;;;5054358;28;20029;-69
2023/01/11 00:04:00;;;;;;;7.32;1.80;;;6.50;99.90;;;;;;5054513;28;20044;-68
2023/01/11 00:06:25;;;;;;;4.57;2.30;;;6.50;99.90;;;;;;5054027;28;20025;-68
2023/01/11 00:08:51;;;;;;;7.95;2.10;;;6.40;99.90;;;;;;5053798;28;20071;-68
2023/01/11 00:11:16;;;;;;;6.15;1.88;;;6.40;99.90;;;;;;5053896;28;20389;-69
2023/01/11 00:13:44;;;;;;;9.73;2.58;;;6.40;99.90;;;;;;5053645;28;20021;-69
2023/01/11 00:16:10;;;;;;;8.38;2.42;;;6.40;99.90;;;;;;5053628;28;20492;-69
2023/01/11 00:18:37;;;;;;;12.57;2.20;;;6.40;99.90;;;;;;5054203;28;20465;-69
2023/01/11 00:21:04;;;;;;;6.70;2.72;;;6.40;99.90;;;;;;5054344;28;20112;-69
2023/01/11 00:23:31;;;;;;;7.63;2.65;;;6.30;99.90;;;;;;5053487;28;20055;-69
2023/01/11 00:25:57;;;;;;;10.02;2.58;;;6.30;99.90;;;;;;5054815;28;20021;-69
2023/01/11 00:28:22;;;;;;;8.80;2.13;;;6.30;99.90;;;;;;5054963;28;20455;-69
2023/01/11 00:30:48;;;;;;;10.82;3.08;;;6.50;99.90;;;;;;5054816;28;20033;-69
2023/01/11 00:33:14;;;;;;;6.25;2.10;;;6.50;99.90;;;;;;5054547;28;20032;-69
2023/01/11 00:35:39;;;;;;;8.38;2.42;;;6.40;99.90;;;;;;5053881;28;20028;-69
2023/01/11 00:38:05;;;;;;;13.60;2.90;;;6.30;99.90;;;;;;5053525;28;20031;-69
2023/01/11 00:40:30;;;;;;;5.65;2.47;;;6.40;99.90;;;;;;5055049;28;20033;-69
2023/01/11 00:48:44;;;;;;;15.88;3.25;;;6.40;99.90;;;;;;5013242;28;20028;-69
2023/01/11 00:51:09;;;;;;;7.50;1.95;;;6.40;99.90;;;;;;5015255;28;20037;-69
2023/01/11 00:53:35;;;;;;;5.47;3.15;;;6.40;99.90;;;;;;5016025;28;20038;-69
2023/01/11 00:56:00;;;;;;;9.85;2.00;;;6.50;99.90;;;;;;4996508;28;20026;-69
2023/01/11 00:58:26;;;;;;;10.98;1.83;;;6.50;99.90;;;;;;5012397;28;20094;-69
2023/01/11 01:00:51;;;;;;;6.20;2.20;;;6.50;99.90;;;;;;5012422;28;20104;-69
2023/01/11 01:03:17;;;;;;;10.50;2.35;;;6.50;99.90;;;;;;5012170;28;20037;-68
2023/01/11 01:05:42;;;;;;;15.88;2.22;;;6.40;99.90;;;;;;5012067;28;20041;-68
2023/01/11 01:08:08;;;;;;;6.30;2.15;;;6.40;99.90;;;;;;5012135;28;20022;-68
2023/01/11 01:10:33;;;;;;;9.73;2.17;;;6.40;99.90;;;;;;5012315;28;20129;-68
2023/01/11 01:15:43;;;;;;;4.57;1.80;;;6.40;99.90;;;;;;5012530;28;20040;-68
2023/01/11 01:18:08;;;;;;;4.85;2.10;;;6.50;99.90;;;;;;5011867;28;20113;-68
2023/01/11 01:20:34;;;;;;;10.20;2.00;;;6.50;99.90;;;;;;5052120;28;20044;-68
2023/01/11 01:22:59;;;;;;;12.60;2.17;;;6.50;99.90;;;;;;5053755;28;20036;-68
2023/01/11 01:25:25;;;;;;;2.45;1.52;;;6.50;99.90;;;;;;5052830;28;20028;-68
2023/01/11 01:27:50;;;;;;;5.72;2.15;;;6.50;99.90;;;;;;5052382;28;20032;-68
2023/01/11 01:30:16;;;;;;;6.32;2.85;;;6.40;99.90;;;;;;5051449;28;20147;-68
2023/01/11 01:32:41;;;;;;;10.02;2.75;;;6.40;99.90;;;;;;5053456;28;20082;-68
2023/01/11 01:35:08;;;;;;;7.53;1.98;;;6.50;99.90;;;;;;5053371;28;20063;-68
2023/01/11 01:37:33;;;;;;;8.65;2.08;;;6.50;99.90;;;;;;5053295;28;20040;-68
2023/01/11 01:39:59;;;;;;;6.70;2.10;;;6.40;99.90;;;;;;5053628;28;20036;-68
2023/01/11 01:42:24;;;;;;;7.90;1.95;;;6.50;99.90;;;;;;5053127;28;20032;-68
2023/01/11 01:45:06;;;;;;;4.70;2.05;;;6.50;99.90;;;;;;5052037;28;20025;-68
2023/01/11 01:47:49;;;;;;;5.15;2.08;;;6.50;99.90;;;;;;5052569;28;20025;-68
2023/01/11 01:50:34;;;;;;;7.65;1.80;;;6.50;99.90;;;;;;5053639;28;20036;-68
2023/01/11 01:53:08;;;;;;;3.95;1.98;;;6.60;99.90;;;;;;5051943;28;20029;-68
2023/01/11 01:55:37;;;;;;;6.78;2.85;;;6.50;99.90;;;;;;5055512;28;20052;-68
2023/01/11 01:58:06;;;;;;;8.30;2.28;;;6.50;99.90;;;;;;5051899;28;20025;-69
2023/01/11 02:00:32;;;;;;;2.50;1.50;;;6.60;99.90;;;;;;5051750;28;20028;-69
2023/01/11 02:02:59;;;;;;;4.53;1.55;;;6.60;99.90;;;;;;5053320;28;20029;-69
2023/01/11 02:05:25;;;;;;;3.08;1.63;;;6.70;99.90;;;;;;5053421;28;20028;-69
2023/01/11 02:07:53;;;;;;;5.90;1.83;;;6.60;99.90;;;;;;5051951;28;20021;-69
2023/01/11 02:10:21;;;;;;;5.30;1.40;;;6.70;99.90;;;;;;5051710;28;20025;-69
2023/01/11 02:12:59;;;;;;;7.07;1.55;;;6.70;99.90;;;;;;5051631;28;20113;-68
2023/01/11 02:15:25;;;;;;;5.57;1.60;;;6.80;99.90;;;;;;5053278;28;20056;-68
2023/01/11 02:17:50;;;;;;;9.40;2.83;;;6.80;99.90;;;;;;5053190;28;20080;-68
2023/01/11 02:20:39;;;;;;;3.85;1.70;;;6.70;99.90;;;;;;5052884;28;20033;-68
2023/01/11 02:23:15;;;;;;;6.88;2.38;;;6.80;99.90;;;;;;5052843;28;20095;-68
2023/01/11 02:25:58;;;;;;;3.72;1.60;;;6.80;99.90;;;;;;5051527;28;20025;-68
2023/01/11 02:28:45;;;;;;;2.22;1.17;;;6.90;99.90;;;;;;5051572;28;20072;-68
2023/01/11 02:31:30;;;;;;;2.88;1.33;;;6.90;99.90;;;;;;5051704;28;20071;-68
2023/01/11 02:34:14;;;;;;;4.18;1.60;;;7.10;99.90;;;;;;5051618;28;20043;-68
2023/01/11 02:37:33;;;;;;;4.93;1.27;;;7.00;99.90;;;;;;5053387;28;20025;-68
2023/01/11 02:40:14;;;;;;;4.50;1.58;;;7.00;99.90;;;;;;4955841;28;20055;-68
2023/01/11 02:46:21;;;;;;;5.18;1.90;;;6.80;99.90;;;;;;4976637;28;20042;-68
2023/01/11 02:48:57;;;;;;;2.40;1.35;;;6.80;99.90;;;;;;4956491;28;20043;-69
2023/01/11 02:51:36;;;;;;;5.78;1.80;;;6.80;99.90;;;;;;4976041;28;20070;-69
2023/01/11 02:54:06;;;;;;;6.45;1.50;;;6.90;99.90;;;;;;4976180;28;20498;-69
2023/01/11 02:56:36;;;;;;;9.27;2.05;;;6.90;99.90;;;;;;4959837;28;20066;-69
2023/01/11 02:59:03;;;;;;;2.75;1.40;;;6.80;99.90;;;;;;4961070;28;20027;-69
2023/01/11 03:01:28;;;;;;;6.65;2.38;;;6.90;99.90;;;;;;4980245;28;20085;-69
2023/01/11 03:03:55;;;;;;;4.53;2.00;;;6.80;99.90;;;;;;4959375;28;20047;-69
2023/01/11 03:06:29;;;;;;;5.03;1.98;;;6.80;99.90;;;;;;4975574;28;20030;-69
2023/01/11 03:09:11;;;;;;;5.05;2.17;;;6.80;99.90;;;;;;4975606;28;20031;-69
2023/01/11 03:18:23;;;;;;;7.65;2.25;;;6.80;99.90;;;;;;5056786;28;20028;-69
2023/01/11 03:21:04;;;;;;;9.48;2.10;;;6.80;99.90;;;;;;5054901;28;20090;-69
2023/01/11 03:23:57;;;;;;;9.85;2.42;;;6.80;99.90;;;;;;5056475;28;20078;-69
2023/01/11 03:26:41;;;;;;;7.50;2.78;;;6.70;99.90;;;;;;5055948;28;20039;-69
2023/01/11 03:29:26;;;;;;;3.83;2.40;;;6.80;99.90;;;;;;5054445;28;20035;-69
2023/01/11 03:32:03;;;;;;;6.18;2.45;;;6.80;99.90;;;;;;5055811;28;20104;-69
2023/01/11 03:34:29;;;;;;;4.72;2.28;;;6.90;99.90;;;;;;5055854;28;20078;-69
2023/01/11 03:37:07;;;;;;;7.03;2.70;;;6.90;99.90;;;;;;5055711;28;20057;-69
2023/01/11 03:39:55;;;;;;;7.03;2.65;;;7.00;99.90;;;;;;5054612;28;20056;-69
2023/01/11 03:42:24;;;;;;;7.10;2.45;;;6.90;99.90;;;;;;5055368;28;20029;-69
2023/01/11 03:44:54;;;;;;;5.80;2.55;;;6.80;99.90;;;;;;5056144;28;20024;-69
2023/01/11 03:47:23;;;;;;;7.78;3.25;;;6.80;99.90;;;;;;5056274;28;20024;-69
2023/01/11 03:50:05;;;;;;;6.68;3.00;;;6.90;99.90;;;;;;5055793;28;20029;-69
2023/01/11 03:52:34;;;;;;;7.15;3.20;;;6.80;99.90;;;;;;5053214;28;20029;-69
2023/01/11 03:55:03;;;;;;;5.72;3.13;;;6.80;99.90;;;;;;5054311;28;20029;-69
2023/01/11 03:57:35;;;;;;;9.00;3.35;;;6.80;99.90;;;;;;5054306;28;20025;-69
2023/01/11 04:00:02;;;;;;;9.52;3.45;;;6.80;99.90;;;;;;5055583;28;20055;-69
2023/01/11 04:02:34;;;;;;;6.13;3.28;;;6.90;99.90;;;;;;5054111;28;20033;-69
2023/01/11 04:05:01;;;;;;;4.53;3.40;;;6.90;99.90;;;;;;5055705;28;20030;-69
2023/01/11 04:07:26;;;;;;;6.78;3.17;;;6.90;99.90;;;;;;5054664;28;20025;-69
2023/01/11 04:09:52;;;;;;;5.57;2.92;;;6.90;99.90;;;;;;5054057;28;20119;-69
2023/01/11 04:12:17;;;;;;;9.70;3.55;;;6.90;99.90;;;;;;5054103;28;20017;-69
2023/01/11 04:14:43;;;;;;;6.22;3.08;;;7.00;99.90;;;;;;5053905;28;20067;-69
2023/01/11 04:17:08;;;;;;;8.10;2.90;;;7.10;99.90;;;;;;5053683;28;20021;-70
2023/01/11 04:19:34;;;;;;;6.55;3.00;;;7.10;99.90;;;;;;5054975;28;20102;-69
2023/01/11 04:21:59;;;;;;;9.27;2.55;;;7.00;99.90;;;;;;5055057;28;20025;-69
2023/01/11 04:24:25;;;;;;;4.97;2.15;;;7.00;99.90;;;;;;5053460;28;20427;-69
2023/01/11 04:26:51;;;;;;;5.57;2.30;;;7.10;99.90;;;;;;5053658;28;20029;-69
2023/01/11 04:29:16;;;;;;;4.30;2.58;;;7.20;99.90;;;;;;5053800;28;20112;-69
2023/01/11 04:31:42;;;;;;;5.43;2.25;;;7.20;99.90;;;;;;5054691;28;20045;-69
2023/01/11 04:34:07;;;;;;;10.80;3.42;;;7.20;99.90;;;;;;5054676;28;20033;-69
2023/01/11 04:36:33;;;;;;;6.53;2.30;;;7.20;99.90;;;;;;5053391;28;20025;-69
2023/01/11 04:38:59;;;;;;;6.43;2.28;;;7.30;99.90;;;;;;5053119;28;20035;-69
2023/01/11 04:44:09;;;;;;;4.03;2.35;;;7.40;99.90;;;;;;5055133;28;20074;-69
2023/01/11 04:46:34;;;;;;;5.88;2.30;;;7.40;99.90;;;;;;5053977;28;20065;-69
2023/01/11 04:49:00;;;;;;;5.60;3.03;;;7.50;99.90;;;;;;5054368;28;20021;-69
2023/01/11 04:51:25;;;;;;;11.02;2.67;;;7.50;99.90;;;;;;5053165;28;20021;-69
2023/01/11 04:53:52;;;;;;;8.45;2.50;;;7.50;99.90;;;;;;5052969;28;20083;-69
2023/01/11 04:56:17;;;;;;;7.97;2.63;;;7.60;99.90;;;;;;5052989;28;20032;-69
2023/01/11 04:58:43;;;;;;;14.95;3.08;;;7.60;99.90;;;;;;5053203;28;20017;-69
2023/01/11 05:01:17;;;;;;;10.75;2.47;;;7.60;99.90;;;;;;5053575;28;20036;-69
2023/01/11 05:03:44;;;;;;;7.22;2.40;;;7.60;99.90;;;;;;5053707;28;20539;-69
2023/01/11 05:06:10;;;;;;;4.20;2.20;;;7.60;99.90;;;;;;5053218;28;20025;-69
2023/01/11 05:08:36;;;;;;;5.53;2.63;;;7.60;99.90;;;;;;5053948;28;20399;-69
2023/01/11 05:11:04;;;;;;;6.57;2.78;;;7.50;99.90;;;;;;5054279;28;20025;-69
2023/01/11 05:13:42;;;;;;;3.08;2.00;;;7.50;99.90;;;;;;5053721;28;20021;-69
2023/01/11 05:16:10;;;;;;;6.45;2.83;;;7.60;99.90;;;;;;5052521;28;20053;-69
2023/01/11 05:18:39;;;;;;;4.85;2.00;;;7.70;99.90;;;;;;5053768;28;20059;-69
2023/01/11 05:21:05;;;;;;;3.25;2.13;;;7.70;99.90;;;;;;5053852;28;20025;-69
2023/01/11 05:23:32;;;;;;;5.72;2.65;;;7.70;99.90;;;;;;5053624;28;20025;-69
2023/01/11 05:25:58;;;;;;;7.45;2.45;;;7.70;99.90;;;;;;5052895;28;20032;-69
2023/01/11 05:28:23;;;;;;;4.43;2.25;;;7.70;99.90;;;;;;5052483;28;20021;-69
2023/01/11 05:30:52;;;;;;;2.80;2.15;;;7.70;99.90;;;;;;5052174;28;20400;-69
2023/01/11 05:33:18;;;;;;;7.22;2.47;;;7.80;99.90;;;;;;5052065;28;20051;-69
2023/01/11 05:35:44;;;;;;;3.88;1.80;;;7.80;99.90;;;;;;5053430;28;20033;-69
2023/01/11 05:38:09;;;;;;;4.60;2.25;;;7.80;99.90;;;;;;5052117;28;20120;-70
2023/01/11 05:40:35;;;;;;;5.45;2.25;;;7.80;99.90;;;;;;5052031;28;20078;-69
2023/01/11 05:43:00;;;;;;;4.70;1.92;;;7.80;99.90;;;;;;5051960;28;20018;-69
2023/01/11 05:45:30;;;;;;;6.47;1.92;;;7.80;99.90;;;;;;5053229;28;20104;-69
2023/01/11 05:47:56;;;;;;;5.03;2.40;;;7.90;99.90;;;;;;5052830;28;20048;-69
2023/01/11 05:50:22;;;;;;;3.72;1.88;;;7.80;99.90;;;;;;5052077;28;20053;-69
2023/01/11 05:52:47;;;;;;;8.93;2.20;;;7.90;99.90;;;;;;5052447;28;20543;-69
2023/01/11 05:55:13;;;;;;;4.30;1.95;;;7.90;99.90;;;;;;5053120;28;20029;-70
2023/01/11 05:57:42;;;;;;;2.92;1.90;;;7.80;99.90;;;;;;5053326;28;20036;-70
2023/01/11 06:00:10;;;;;;;5.05;1.73;;;7.90;99.90;;;;;;5053057;28;20032;-70
2023/01/11 06:02:35;;;;;;;1.98;1.52;;;7.90;99.90;;;;;;5053323;28;20115;-70
2023/01/11 06:05:01;;;;;;;2.53;1.67;;;8.00;99.90;;;;;;5052397;28;20163;-70
2023/01/11 06:07:27;;;;;;;2.60;1.70;;;8.00;99.90;;;;;;5051669;28;20021;-70
2023/01/11 06:09:52;;;;;;;2.42;1.52;;;8.10;99.90;;;;;;5052760;28;20087;-70
2023/01/11 06:12:18;;;;;;;4.75;1.80;;;8.10;99.90;;;;;;5052812;28;20032;-70
2023/01/11 06:14:43;;;;;;;3.78;1.60;;;8.10;99.90;;;;;;5052044;28;20047;-69
2023/01/11 06:17:09;;;;;;;2.05;1.38;;;8.20;99.90;;;;;;5052555;28;20522;-69
2023/01/11 06:19:34;;;;;;;7.35;2.13;;;8.20;99.90;;;;;;5051491;28;20068;-69
2023/01/11 06:22:00;;;;;;;5.88;2.25;;;8.20;99.90;;;;;;5052799;28;20029;-69
2023/01/11 06:24:25;;;;;;;3.45;2.42;;;8.20;99.90;;;;;;5051487;28;20404;-69
2023/01/11 06:26:52;;;;;;;5.78;1.98;;;8.20;99.90;;;;;;5053053;28;20021;-69
2023/01/11 06:29:17;;;;;;;3.05;2.17;;;8.30;99.90;;;;;;5053063;28;20025;-69
2023/01/11 06:31:43;;;;;;;4.32;2.08;;;8.30;99.90;;;;;;5052738;28;20028;-69
2023/01/11 06:34:08;;;;;;;3.55;1.95;;;8.30;99.90;;;;;;5052353;28;20021;-69
2023/01/11 06:36:34;;;;;;;4.75;2.47;;;8.40;99.90;;;;;;5052130;28;20028;-70
2023/01/11 06:38:59;;;;;;;4.10;2.70;;;8.30;99.90;;;;;;5052888;28;20032;-70
2023/01/11 06:41:27;;;;;;;6.50;2.80;;;8.20;99.90;;;;;;5053213;28;20104;-70
2023/01/11 06:43:53;;;;;;;6.88;3.00;;;8.10;99.90;;;;;;5051659;28;20104;-70
2023/01/11 06:46:19;;;;;;;9.55;3.75;;;8.10;99.90;;;;;;5051684;28;20116;-70
2023/01/11 06:48:45;;;;;;;12.18;3.88;;;8.10;99.90;;;;;;5052114;28;20044;-70
2023/01/11 06:51:11;;;;;;;9.82;3.47;;;8.00;99.90;;;;;;5051286;28;20029;-70
2023/01/11 06:53:37;;;;;;;8.52;4.13;;;8.10;99.90;;;;;;5051624;28;20112;-69
2023/01/11 06:56:03;;;;;;;6.05;3.85;;;8.00;99.90;;;;;;5052104;28;20031;-69
2023/01/11 06:58:28;;;;;;;12.50;4.45;;;8.00;99.90;;;;;;5051243;28;20024;-70
2023/01/11 07:00:55;;;;;;;6.60;4.60;;;7.90;99.90;;;;;;5052369;28;20396;-70
2023/01/11 07:03:23;;;;;;;8.80;4.50;;;8.00;99.90;;;;;;5051558;28;20115;-69
2023/01/11 07:05:49;;;;;;;6.38;4.53;;;8.00;99.90;;;;;;5051522;28;20173;-70
2023/01/11 07:08:14;;;;;;;7.75;4.38;;;8.00;99.90;;;;;;5052408;28;20100;-70
2023/01/11 07:10:42;;;;;;;8.48;4.40;;;8.10;99.90;;;;;;5081871;28;20096;-69
2023/01/11 07:13:09;;;;;;;9.25;4.47;;;8.10;99.90;;;;;;5092587;28;20016;-70
2023/01/11 07:15:35;;;;;;;12.45;5.72;;;8.00;99.90;;;;;;5091512;28;20066;-70
2023/01/11 07:18:01;;;;;;;8.43;5.78;;;8.10;99.90;;;;;;5092872;28;20064;-69
2023/01/11 07:20:27;;;;;;;8.73;4.78;;;8.00;99.90;;;;;;5091164;28;20020;-69
2023/01/11 07:22:59;;;;;;;9.30;5.20;;;8.00;99.90;;;;;;5092394;28;20020;-69
2023/01/11 07:25:28;;;;;;;10.50;6.00;;;7.90;99.90;;;;;;5092668;28;20081;-69
2023/01/11 07:28:05;;;;;;;9.35;5.38;;;8.00;99.90;;;;;;5093841;28;20028;-69
2023/01/11 07:30:32;;;;;;;10.63;5.65;;;8.00;99.90;;;;;;5095602;28;20032;-68
2023/01/11 07:32:59;;;;;;;8.57;4.90;;;7.90;99.90;;;;;;5096359;28;20099;-68
2023/01/11 07:35:25;;;;;;;8.25;4.93;;;7.90;99.90;;;;;;5095675;28;20024;-69
2023/01/11 07:37:51;;;;;;;10.13;5.70;;;7.90;99.90;;;;;;5094890;28;20028;-68
2023/01/11 07:40:17;;;;;;;6.50;4.93;;;8.00;99.90;;;;;;5096390;28;20024;-68
2023/01/11 07:45:36;;;;;;;;;;;8.10;99.90;;;;;;5097126;28;20039;-70
2023/01/11 07:48:06;;;;;;;7.90;3.97;;;8.10;99.90;;;;;;5095004;28;19939;-69
2023/01/11 07:50:32;;;;;;;5.47;4.10;;;8.20;99.90;;;;;;5096258;28;20035;-69
2023/01/11 07:52:57;;;;;;;9.93;5.05;;;8.20;99.90;;;;;;5095822;28;20028;-68
2023/01/11 07:55:23;;;;;;;7.22;3.38;;;8.20;99.90;;;;;;5094667;28;20077;-69
2023/01/11 07:57:49;;;;;;;6.07;4.07;;;8.10;99.90;;;;;;5095308;28;20032;-69
2023/01/11 08:00:15;;;;;;;5.07;3.30;;;8.10;99.90;;;;;;5094499;28;20028;-69
2023/01/11 08:02:41;;;;;;;6.53;4.00;;;8.10;99.90;;;;;;5095486;28;20028;-69
2023/01/11 08:05:08;;;;;;;6.35;3.38;;;8.10;99.90;;;;;;5095419;28;20051;-69
2023/01/11 08:07:33;;;;;;;5.55;3.10;;;8.10;99.90;;;;;;5095361;28;20024;-69
2023/01/11 08:09:59;;;;;;;3.75;2.70;;;8.20;99.90;;;;;;5094149;28;20092;-69
2023/01/11 08:15:11;;;;;;;4.00;2.85;;;8.30;99.90;;;;;;5095591;28;20118;-69
2023/01/11 08:17:37;;;;;;;3.58;2.67;;;8.50;99.90;;;;;;5093899;28;20027;-69
2023/01/11 08:20:03;;;;;;;3.47;2.80;;;8.50;99.90;;;;;;5093784;28;20024;-68
2023/01/11 08:22:28;;;;;;;6.57;2.80;;;8.50;99.90;;;;;;5093744;28;20462;-69
2023/01/11 08:24:54;;;;;;;3.83;2.42;;;8.50;99.90;;;;;;5093695;28;20020;-69
2023/01/11 08:27:19;;;;;;;3.40;2.35;;;8.50;99.90;;;;;;5094951;28;20024;-69
2023/01/11 08:29:45;;;;;;;4.32;2.63;;;8.50;99.90;;;;;;5094592;28;20040;-69
2023/01/11 08:32:11;;;;;;;5.50;3.13;;;8.50;99.90;;;;;;5093424;28;20094;-68
2023/01/11 08:34:37;;;;;;;4.13;2.33;;;8.60;99.90;;;;;;5095032;28;20062;-69
2023/01/11 08:37:04;;;;;;;5.38;2.53;;;8.60;99.90;;;;;;5093510;28;20089;-69
2023/01/11 08:39:29;;;;;;;5.90;2.50;;;8.70;99.90;;;;;;5093745;28;20035;-69
2023/01/11 08:42:01;;;;;;;4.30;2.30;;;8.70;99.90;;;;;;5095003;28;20024;-70
2023/01/11 08:44:30;;;;;;;;;;;8.70;99.90;;;;;;5096221;28;20101;-69
2023/01/11 08:46:55;;;;;;;3.03;2.13;;;8.60;99.90;;;;;;5097019;28;19915;-69
2023/01/11 08:49:21;;;;;;;3.08;2.70;;;8.70;99.90;;;;;;5096537;28;20024;-69
2023/01/11 08:51:46;;;;;;;7.65;3.00;;;8.70;99.90;;;;;;5096058;28;20020;-69
2023/01/11 08:54:13;;;;;;;5.78;3.22;;;8.60;99.90;;;;;;5094699;28;20067;-69
2023/01/11 08:56:39;;;;;;;4.97;3.53;;;8.50;99.90;;;;;;5095080;28;20020;-69
2023/01/11 08:59:05;;;;;;;4.63;2.85;;;8.40;99.90;;;;;;5094464;28;20027;-69
2023/01/11 09:01:32;;;;;;;7.35;4.00;;;8.40;99.90;;;;;;5095129;28;20032;-69
2023/01/11 09:03:58;;;;;;;5.30;3.78;;;8.40;99.90;;;;;;5094261;28;20036;-70
2023/01/11 09:06:25;;;;;;;7.63;3.70;;;8.40;99.90;;;;;;5093839;28;20368;-68
2023/01/11 09:08:51;;;;;;;4.72;3.22;;;8.40;99.90;;;;;;5094425;28;20038;-69
2023/01/11 09:14:01;;;;;;;7.60;3.50;;;8.40;99.90;;;;;;5094734;28;20050;-70
2023/01/11 09:16:27;;;;;;;7.85;4.68;;;8.40;99.90;;;;;;5092820;28;20016;-69
2023/01/11 09:18:54;;;;;;;7.22;3.92;;;8.50;99.90;;;;;;5092764;28;20016;-69
2023/01/11 09:21:20;;;;;;;7.00;4.07;;;8.50;99.90;;;;;;5093847;28;20024;-69
2023/01/11 09:23:45;;;;;;;7.53;4.28;;;8.50;99.90;;;;;;5092675;28;20030;-69
2023/01/11 09:26:11;;;;;;;6.45;4.05;;;8.60;99.90;;;;;;5094172;28;20024;-69
2023/01/11 09:28:37;;;;;;;8.50;4.65;;;8.50;99.90;;;;;;5093329;28;20020;-69
2023/01/11 09:31:03;;;;;;;5.95;4.28;;;8.50;99.90;;;;;;5092661;28;20032;-68
2023/01/11 09:33:29;;;;;;;6.28;4.30;;;8.50;99.90;;;;;;5092254;28;20073;-68
2023/01/11 09:35:57;;;;;;;5.07;3.50;;;8.50;99.90;;;;;;5092373;28;20024;-69
2023/01/11 09:38:28;;;;;;;8.18;4.20;;;8.40;99.90;;;;;;5093202;28;20027;-69
2023/01/11 09:41:07;;;;;;;8.30;3.92;;;8.40;99.90;;;;;;5092316;28;20069;-69
2023/01/11 09:43:38;;;;;;;6.40;3.78;;;8.40;99.90;;;;;;5093741;28;20016;-69
2023/01/11 09:46:07;;;;;;;9.27;3.78;;;8.50;99.90;;;;;;5092366;28;20024;-69
2023/01/11 09:48:46;;;;;;;7.07;4.18;;;8.50;99.90;;;;;;5093142;28;20031;-69
2023/01/11 09:51:17;;;;;;;5.55;3.58;;;8.50;99.90;;;;;;5091556;28;20025;-69
2023/01/11 09:53:49;;;;;;;6.80;3.88;;;8.50;99.90;;;;;;5093853;28;20103;-69
2023/01/11 09:56:23;;;;;;;7.13;4.78;;;8.60;99.90;;;;;;5092387;28;20119;-69
2023/01/11 09:59:05;;;;;;;7.22;3.80;;;8.50;99.90;;;;;;5093790;28;20024;-69
2023/01/11 10:01:48;;;;;;;9.25;4.20;;;8.50;99.90;;;;;;5093188;28;20024;-69
2023/01/11 10:04:31;;;;;;;6.68;3.50;;;8.50;99.90;;;;;;5093769;28;20034;-69
2023/01/11 10:07:00;;;;;;;7.35;4.05;;;8.40;99.90;;;;;;5092092;28;20020;-69
2023/01/11 10:09:31;;;;;;;12.38;4.28;;;8.50;99.90;;;;;;5092389;28;20024;-69
2023/01/11 10:12:30;;;;;;;6.45;3.90;;;8.50;99.90;;;;;;5093401;28;20020;-69
2023/01/11 10:14:59;;;;;;;9.02;4.72;;;8.50;99.90;;;;;;5093813;28;20020;-69
2023/01/11 10:18:03;;;;;;;9.18;4.63;;;8.50;99.90;;;;;;5093846;28;20040;-69
2023/01/11 10:20:36;;;;;;;8.77;4.00;;;8.50;99.90;;;;;;5091992;28;20483;-69
2023/01/11 10:23:10;;;;;;;8.00;4.32;;;8.50;99.90;;;;;;5091865;28;20024;-69
2023/01/11 10:25:49;;;;;;;7.45;3.88;;;8.50;99.90;;;;;;5091798;28;20043;-69
2023/01/11 10:28:30;;;;;;;7.57;4.78;;;8.70;99.90;;;;;;5091775;28;20107;-69
2023/01/11 10:34:12;;;;;;;13.23;5.97;;;8.80;99.90;;;;;;5093580;28;20479;-68
2023/01/11 10:41:01;;;;;;;9.57;4.97;;;8.70;99.90;;;;;;5051065;28;20032;-69
2023/01/11 10:43:30;;;;;;;7.75;4.40;;;8.70;99.90;;;;;;5050686;28;20039;-68
2023/01/11 10:45:59;;;;;;;7.85;4.15;;;8.70;99.90;;;;;;5050925;28;20480;-69
2023/01/11 10:48:34;;;;;;;10.45;4.55;;;8.70;99.90;;;;;;5050728;28;20139;-68
2023/01/11 10:51:26;;;;;;;7.18;4.25;;;8.60;99.90;;;;;;5050549;28;20037;-68
2023/01/11 10:54:17;;;;;;;7.40;4.20;;;8.60;99.90;;;;;;5050528;28;20029;-68
2023/01/11 10:57:01;;;;;;;11.88;5.10;;;8.80;99.90;;;;;;5050458;28;20048;-68
2023/01/11 11:00:07;;;;;;;11.90;4.63;;;8.90;99.90;;;;;;5034025;28;20021;-68
2023/01/11 11:02:57;;;;;;;9.18;4.68;;;8.90;99.90;;;;;;5036130;28;20116;-68
2023/01/11 11:05:35;;;;;;;12.70;6.03;;;8.90;99.90;;;;;;5037475;28;20396;-68
2023/01/11 11:08:25;;;;;;;11.38;4.80;;;8.90;99.90;;;;;;5054551;28;20053;-68
2023/01/11 11:11:25;;;;;;;11.65;5.47;;;9.00;99.90;;;;;;5068708;28;20119;-68
2023/01/11 11:14:21;;;;;;;11.48;4.70;;;9.00;99.90;;;;;;5066066;28;20028;-69
2023/01/11 11:17:03;;;;;;;8.43;4.25;;;9.00;99.90;;;;;;5079564;28;20037;-69
2023/01/11 11:19:31;;;;;;;10.85;4.22;;;9.00;99.90;;;;;;5084083;28;20024;-69
2023/01/11 11:21:57;;;;;;;8.90;4.30;;;9.00;99.90;;;;;;5079827;28;20028;-69
2023/01/11 11:24:37;;;;;;;7.30;4.15;;;9.00;99.90;;;;;;5084829;28;20526;-69
2023/01/11 11:27:26;;;;;;;8.60;4.65;;;9.10;99.90;;;;;;5054661;28;20459;-69
2023/01/11 11:29:54;;;;;;;7.28;3.80;;;9.10;99.90;;;;;;5054502;28;20029;-69
2023/01/11 11:32:23;;;;;;;8.10;3.53;;;9.00;99.90;;;;;;5068035;28;20024;-69
2023/01/11 11:34:49;;;;;;;7.68;3.13;;;9.00;99.90;;;;;;5090126;28;20032;-69
2023/01/11 11:37:25;;;;;;;6.18;3.60;;;9.10;99.90;;;;;;5093445;28;20120;-69
2023/01/11 11:39:52;;;;;;;4.78;3.10;;;9.10;99.90;;;;;;5074798;28;20028;-69
2023/01/11 11:42:22;;;;;;;4.57;2.38;;;9.20;99.90;;;;;;5083059;28;20114;-69
2023/01/11 11:45:13;;;;;;;8.77;1.70;;;9.30;99.90;;;;;;5085542;28;20044;-69
2023/01/11 11:47:39;;;;;;;3.10;2.00;;;9.40;99.90;;;;;;5080070;28;20032;-69
2023/01/11 11:50:23;;;;;;;6.50;2.70;;;9.50;99.90;;;;;;5083582;28;20030;-69
2023/01/11 11:52:59;;;;;;;1.77;1.48;;;9.60;99.90;;;;;;5055546;28;20028;-69
2023/01/11 11:55:29;;;;;;;2.38;1.48;;;9.70;99.90;;;;;;5055537;28;20033;-69
2023/01/11 11:57:57;;;;;;;2.28;1.38;;;9.80;99.90;;;;;;5054084;28;20048;-69
2023/01/11 12:00:26;;;;;;;2.17;1.63;;;9.80;99.90;;;;;;5053994;28;20025;-69
2023/01/11 12:05:19;;;;;;;3.15;1.60;;;9.90;99.90;;;;;;5115379;22;20072;-69
2023/01/11 12:07:48;;;;;;;2.35;1.55;;;10.00;99.90;;;;;;5094208;28;20031;-69
2023/01/11 12:10:27;;;;;;;3.38;1.70;;;9.90;99.90;;;;;;5111026;28;20024;-69
2023/01/11 12:12:53;;;;;;;1.83;1.73;;;9.90;99.90;;;;;;5093772;28;20073;-68
2023/01/11 12:15:22;;;;;;;2.90;1.67;;;9.90;99.90;;;;;;5093844;28;20028;-69
2023/01/11 12:17:49;;;;;;;2.58;1.98;;;9.90;99.90;;;;;;5094306;28;20020;-68
2023/01/11 12:20:20;;;;;;;3.10;1.92;;;9.90;99.90;;;;;;5094402;28;20033;-68
2023/01/11 12:22:47;;;;;;;4.63;1.88;;;9.90;99.90;;;;;;5093908;28;20028;-68
2023/01/11 12:25:21;;;;;;;3.10;2.40;;;9.90;99.90;;;;;;5094956;28;20024;-69
2023/01/11 12:28:02;;;;;;;5.13;2.55;;;9.80;99.90;;;;;;5095084;28;20026;-68
2023/01/11 12:30:55;;;;;;;4.68;1.67;;;9.90;99.90;;;;;;5094530;28;20020;-68
2023/01/11 12:33:23;;;;;;;4.05;2.25;;;10.00;99.90;;;;;;5094957;28;20032;-69
2023/01/11 12:36:06;;;;;;;6.03;2.45;;;10.00;99.90;;;;;;5094928;28;20045;-69
2023/01/11 12:38:46;;;;;;;3.60;2.15;;;10.00;99.90;;;;;;5094489;28;20028;-69
2023/01/11 12:41:44;;;;;;;3.92;2.03;;;10.00;99.90;;;;;;5094181;28;20028;-69
2023/01/11 12:44:17;;;;;;;2.70;2.03;;;10.00;99.90;;;;;;5094566;28;20017;-68
2023/01/11 12:47:23;;;;;;;2.33;1.75;;;10.20;99.90;;;;;;5084862;28;20025;-68
2023/01/11 12:50:02;;;;;;;2.30;1.23;;;10.20;99.90;;;;;;5074681;28;20055;-68
2023/01/11 12:53:02;;;;;;;2.42;1.35;;;10.20;99.90;;;;;;5073187;28;20028;-68
2023/01/11 12:55:47;;;;;;;0.55;0.50;;;10.20;99.90;;;;;;5072984;28;20029;-68
2023/01/11 12:58:32;;;;;;;2.17;0.57;;;10.10;99.90;;;;;;5074280;28;20064;-68
2023/01/11 13:01:28;;;;;;;1.40;0.90;;;10.10;99.90;;;;;;5074219;28;20032;-68
2023/01/11 13:04:07;;;;;;;2.90;1.15;;;10.10;99.90;;;;;;5073315;28;20029;-68
2023/01/11 13:06:41;;;;;;;2.08;0.80;;;10.10;99.90;;;;;;5074288;28;20052;-68
2023/01/11 13:09:07;;;;;;;2.47;1.00;;;10.10;99.90;;;;;;5074050;28;20021;-68
2023/01/11 13:11:42;;;;;;;2.83;0.80;;;10.10;99.90;;;;;;5072641;28;20020;-68
2023/01/11 13:14:27;;;;;;;7.63;1.30;;;10.20;99.90;;;;;;5072715;28;20032;-68
2023/01/11 13:17:17;;;;;;;3.13;1.63;;;10.20;99.90;;;;;;5074064;28;20017;-68
2023/01/11 13:19:48;;;;;;;4.90;1.80;;;10.30;99.90;;;;;;5073275;28;20031;-68
2023/01/11 13:22:23;;;;;;;4.43;1.75;;;10.30;99.90;;;;;;5073865;28;20021;-68
2023/01/11 13:24:50;;;;;;;1.85;1.30;;;10.30;99.90;;;;;;5072443;28;20469;-68
2023/01/11 13:27:23;;;;;;;12.88;1.40;;;10.20;99.90;;;;;;5072415;28;20031;-68
2023/01/11 13:30:00;;;;;;;4.85;1.20;;;10.20;99.90;;;;;;5072578;28;20024;-68
2023/01/11 13:32:32;;;;;;;10.40;2.63;;;10.10;99.90;;;;;;5073598;28;20032;-68
2023/01/11 13:35:20;;;;;;;8.40;2.15;;;10.10;99.90;;;;;;5072363;28;20499;-68
2023/01/11 13:38:25;;;;;;;5.95;1.63;;;10.10;99.90;;;;;;5073751;28;20085;-68
2023/01/11 13:40:54;;;;;;;18.40;3.78;;;10.10;99.90;;;;;;5073875;28;20031;-68
2023/01/11 13:43:32;;;;;;;11.43;2.38;;;10.00;99.90;;;;;;5073741;28;20032;-67
2023/01/11 13:46:05;;;;;;;9.48;1.98;;;10.00;99.90;;;;;;5073547;28;20025;-67
2023/01/11 13:48:39;;;;;;;6.28;2.13;;;10.10;99.90;;;;;;5073815;28;20028;-67
2023/01/11 13:51:24;;;;;;;15.13;3.60;;;10.00;99.90;;;;;;5073006;28;20024;-68
2023/01/11 13:54:03;;;;;;;12.43;2.13;;;10.00;99.90;;;;;;5072027;28;20113;-67
2023/01/11 13:56:29;;;;;;;8.13;2.10;;;10.00;99.90;;;;;;5072178;28;20123;-67